createdAt,value
2023-03-13T00:00:04.008Z,1001.46
2023-03-13T00:01:04.339Z,1001.44
2023-03-13T00:02:04.814Z,1001.40
2023-03-13T00:03:05.104Z,1001.39
2023-03-13T00:04:05.398Z,1001.35
2023-03-13T00:05:05.756Z,1001.32
2023-03-13T00:06:05.998Z,1001.39
2023-03-13T00:07:06.231Z,1001.38
2023-03-13T00:08:06.439Z,1001.31
2023-03-13T00:09:06.809Z,1001.37
2023-03-13T00:10:07.047Z,1001.34
2023-03-13T00:11:07.274Z,1001.36
2023-03-13T00:12:07.498Z,1001.32
2023-03-13T00:13:07.744Z,1001.26
2023-03-13T00:14:08.029Z,1001.24
2023-03-13T00:15:08.273Z,1001.26
2023-03-13T00:16:08.645Z,1001.12
2023-03-13T00:17:08.990Z,1001.11
2023-03-13T00:18:09.181Z,1001.11
2023-03-13T00:19:09.438Z,1001.12
2023-03-13T00:20:09.657Z,1001.09
2023-03-13T00:21:10.019Z,1001.02
2023-03-13T00:22:10.292Z,1000.95
2023-03-13T00:23:10.528Z,1000.94
2023-03-13T00:24:10.750Z,1000.94
2023-03-13T00:25:11.093Z,1001.01
2023-03-13T00:26:11.330Z,1001.01
2023-03-13T00:27:11.620Z,1001.06
2023-03-13T00:28:11.877Z,1001.02
2023-03-13T00:29:12.152Z,1001.02
2023-03-13T00:30:12.410Z,1001.01
2023-03-13T00:31:12.764Z,1001.03
2023-03-13T00:32:13.089Z,1001.08
2023-03-13T00:33:13.352Z,1001.04
2023-03-13T00:34:13.698Z,1001.07
2023-03-13T00:35:13.964Z,1000.94
2023-03-13T00:36:14.269Z,1000.97
2023-03-13T00:37:14.533Z,1001.02
2023-03-13T00:38:14.863Z,1001.03
2023-03-13T00:39:15.186Z,1001.06
2023-03-13T00:40:15.464Z,1001.02
2023-03-13T00:41:15.726Z,1000.99
2023-03-13T00:42:16.044Z,1000.96
2023-03-13T00:43:16.236Z,1000.99
2023-03-13T00:44:16.493Z,1000.94
2023-03-13T00:45:16.757Z,1000.97
2023-03-13T00:46:17.116Z,1000.90
2023-03-13T00:47:17.312Z,1000.93
2023-03-13T00:48:17.598Z,1000.95
2023-03-13T00:49:17.919Z,1000.94
2023-03-13T00:50:18.165Z,1000.86
2023-03-13T00:51:18.454Z,1000.89
2023-03-13T00:52:18.714Z,1000.92
2023-03-13T00:53:18.997Z,1000.90
2023-03-13T00:54:19.294Z,1000.86
2023-03-13T00:55:19.634Z,1000.90
2023-03-13T00:56:19.890Z,1000.89
2023-03-13T00:57:20.238Z,1000.91
2023-03-13T00:58:20.467Z,1000.86
2023-03-13T00:59:20.733Z,1000.84
2023-03-13T01:00:21.007Z,1000.87
2023-03-13T01:01:21.303Z,1000.86
2023-03-13T01:02:21.702Z,1000.84
2023-03-13T01:03:22.127Z,1000.84
2023-03-13T01:04:22.237Z,1000.81
2023-03-13T01:05:22.543Z,1000.90
2023-03-13T01:06:22.876Z,1000.90
2023-03-13T01:07:23.165Z,1000.83
2023-03-13T01:08:23.525Z,1000.92
2023-03-13T01:09:23.818Z,1000.93
2023-03-13T01:10:24.209Z,1000.96
2023-03-13T01:11:24.443Z,1000.87
2023-03-13T01:12:24.796Z,1000.92
2023-03-13T01:13:25.014Z,1000.84
2023-03-13T01:14:25.314Z,1000.83
2023-03-13T01:15:25.560Z,1000.84
2023-03-13T01:16:25.866Z,1000.83
2023-03-13T01:17:26.227Z,1000.78
2023-03-13T01:18:26.443Z,1000.77
2023-03-13T01:19:26.770Z,1000.77
2023-03-13T01:20:27.037Z,1000.77
2023-03-13T01:21:27.301Z,1000.73
2023-03-13T01:22:27.642Z,1000.76
2023-03-13T01:23:27.906Z,1000.77
2023-03-13T01:24:28.149Z,1000.78
2023-03-13T01:25:28.549Z,1000.80
2023-03-13T01:26:28.773Z,1000.77
2023-03-13T01:27:28.964Z,1000.81
2023-03-13T01:28:29.189Z,1000.89
2023-03-13T01:29:29.444Z,1000.83
2023-03-13T01:30:29.678Z,1000.77
2023-03-13T01:31:30.008Z,1000.73
2023-03-13T01:32:30.219Z,1000.66
2023-03-13T01:33:30.444Z,1000.68
2023-03-13T01:34:30.748Z,1000.63
2023-03-13T01:35:31.019Z,1000.67
2023-03-13T01:36:31.281Z,1000.67
2023-03-13T01:37:31.484Z,1000.61
2023-03-13T01:38:31.814Z,1000.54
2023-03-13T01:39:32.185Z,1000.53
2023-03-13T01:40:32.424Z,1000.44
2023-03-13T01:41:32.654Z,1000.43
2023-03-13T01:42:32.948Z,1000.45
2023-03-13T01:43:33.153Z,1000.39
2023-03-13T01:44:33.502Z,1000.47
2023-03-13T01:45:33.823Z,1000.45
2023-03-13T01:46:34.196Z,1000.42
2023-03-13T01:47:34.442Z,1000.41
2023-03-13T01:48:34.661Z,1000.34
2023-03-13T01:49:34.883Z,1000.32
2023-03-13T01:50:35.236Z,1000.34
2023-03-13T01:51:35.465Z,1000.29
2023-03-13T01:52:35.881Z,1000.34
2023-03-13T01:53:36.165Z,1000.32
2023-03-13T01:54:36.532Z,1000.31
2023-03-13T01:55:36.776Z,1000.31
2023-03-13T01:56:37.074Z,1000.29
2023-03-13T01:57:37.436Z,1000.28
2023-03-13T01:58:37.696Z,1000.30
2023-03-13T01:59:38.000Z,1000.27
2023-03-13T02:00:38.357Z,1000.31
2023-03-13T02:01:38.741Z,1000.30
2023-03-13T02:02:38.965Z,1000.30
2023-03-13T02:03:39.249Z,1000.27
2023-03-13T02:04:39.441Z,1000.25
2023-03-13T02:05:39.813Z,1000.27
2023-03-13T02:06:40.070Z,1000.19
2023-03-13T02:07:40.407Z,1000.28
2023-03-13T02:08:40.648Z,1000.22
2023-03-13T02:09:40.991Z,1000.22
2023-03-13T02:10:41.282Z,1000.20
2023-03-13T02:11:41.585Z,1000.17
2023-03-13T02:12:41.868Z,1000.22
2023-03-13T02:13:42.259Z,1000.24
2023-03-13T02:14:42.567Z,1000.12
2023-03-13T02:15:42.825Z,1000.16
2023-03-13T02:16:43.080Z,1000.18
2023-03-13T02:17:43.388Z,1000.18
2023-03-13T02:18:43.650Z,1000.14
2023-03-13T02:19:43.926Z,1000.15
2023-03-13T02:20:44.159Z,1000.15
2023-03-13T02:21:44.418Z,1000.22
2023-03-13T02:22:44.656Z,1000.20
2023-03-13T02:23:44.925Z,1000.18
2023-03-13T02:24:45.194Z,1000.10
2023-03-13T02:25:45.502Z,1000.12
2023-03-13T02:26:45.800Z,1000.17
2023-03-13T02:27:46.061Z,1000.14
2023-03-13T02:28:46.305Z,1000.19
2023-03-13T02:29:46.556Z,1000.15
2023-03-13T02:30:46.833Z,1000.14
2023-03-13T02:31:47.190Z,1000.16
2023-03-13T02:32:47.445Z,1000.13
2023-03-13T02:33:47.651Z,1000.16
2023-03-13T02:34:48.039Z,1000.10
2023-03-13T02:35:48.301Z,1000.07
2023-03-13T02:36:48.601Z,1000.04
2023-03-13T02:37:48.889Z,1000.06
2023-03-13T02:38:49.189Z,1000.07
2023-03-13T02:39:49.511Z,999.99
2023-03-13T02:40:49.817Z,1000.00
2023-03-13T02:41:50.082Z,1000.00
2023-03-13T02:42:50.394Z,999.99
2023-03-13T02:43:50.676Z,999.92
2023-03-13T02:44:50.946Z,999.78
2023-03-13T02:45:51.278Z,999.85
2023-03-13T02:46:51.608Z,999.78
2023-03-13T02:47:51.838Z,999.81
2023-03-13T02:48:52.126Z,999.81
2023-03-13T02:49:52.350Z,999.87
2023-03-13T02:50:52.748Z,999.78
2023-03-13T02:51:52.981Z,999.83
2023-03-13T02:52:53.246Z,999.81
2023-03-13T02:53:53.519Z,999.77
2023-03-13T02:54:53.918Z,999.78
2023-03-13T02:55:54.188Z,999.80
2023-03-13T02:56:54.445Z,999.78
2023-03-13T02:57:54.735Z,999.75
2023-03-13T02:58:54.969Z,999.75
2023-03-13T02:59:55.370Z,999.78
2023-03-13T03:00:55.729Z,999.71
2023-03-13T03:01:55.944Z,999.67
2023-03-13T03:02:56.243Z,999.69
2023-03-13T03:03:56.554Z,999.63
2023-03-13T03:04:56.756Z,999.64
2023-03-13T03:05:57.115Z,999.61
2023-03-13T03:06:57.362Z,999.61
2023-03-13T03:07:57.595Z,999.59
2023-03-13T03:08:57.885Z,999.60
2023-03-13T03:09:58.096Z,999.56
2023-03-13T03:10:58.426Z,999.55
2023-03-13T03:11:58.772Z,999.51
2023-03-13T03:12:59.157Z,999.50
2023-03-13T03:13:59.417Z,999.55
2023-03-13T03:14:59.656Z,999.50
2023-03-13T03:15:59.899Z,999.48
2023-03-13T03:17:00.125Z,999.54
2023-03-13T03:18:00.362Z,999.48
2023-03-13T03:19:00.635Z,999.45
2023-03-13T03:20:00.837Z,999.47
2023-03-13T03:21:01.088Z,999.47
2023-03-13T03:22:01.306Z,999.42
2023-03-13T03:23:01.645Z,999.39
2023-03-13T03:24:02.004Z,999.45
2023-03-13T03:25:02.225Z,999.40
2023-03-13T03:26:02.590Z,999.47
2023-03-13T03:27:02.825Z,999.40
2023-03-13T03:28:03.070Z,999.40
2023-03-13T03:29:03.300Z,999.34
2023-03-13T03:30:03.540Z,999.36
2023-03-13T03:31:03.803Z,999.38
2023-03-13T03:32:04.104Z,999.39
2023-03-13T03:33:04.399Z,999.30
2023-03-13T03:34:04.642Z,999.37
2023-03-13T03:35:04.873Z,999.36
2023-03-13T03:36:05.226Z,999.29
2023-03-13T03:37:05.449Z,999.32
2023-03-13T03:38:05.718Z,999.31
2023-03-13T03:39:05.955Z,999.35
2023-03-13T03:40:06.213Z,999.33
2023-03-13T03:41:06.424Z,999.30
2023-03-13T03:42:06.760Z,999.20
2023-03-13T03:43:07.138Z,999.22
2023-03-13T03:44:07.348Z,999.20
2023-03-13T03:45:07.675Z,999.18
2023-03-13T03:46:08.109Z,999.18
2023-03-13T03:47:08.367Z,999.20
2023-03-13T03:48:08.627Z,999.13
2023-03-13T03:49:08.833Z,999.13
2023-03-13T03:50:09.165Z,999.14
2023-03-13T03:51:09.484Z,999.10
2023-03-13T03:52:09.818Z,999.10
2023-03-13T03:53:10.174Z,999.15
2023-03-13T03:54:18.014Z,999.06
2023-03-13T03:55:10.823Z,999.10
2023-03-13T03:56:11.154Z,999.11
2023-03-13T03:57:11.455Z,999.12
2023-03-13T03:58:11.775Z,999.08
2023-03-13T03:59:12.103Z,999.09
2023-03-13T04:00:12.422Z,999.05
2023-03-13T04:01:12.743Z,999.08
2023-03-13T04:02:13.135Z,999.02
2023-03-13T04:03:13.376Z,999.00
2023-03-13T04:04:13.695Z,998.96
2023-03-13T04:05:14.017Z,998.97
2023-03-13T04:06:14.364Z,998.91
2023-03-13T04:07:14.688Z,998.94
2023-03-13T04:08:15.014Z,998.84
2023-03-13T04:09:15.329Z,998.88
2023-03-13T04:10:15.645Z,998.93
2023-03-13T04:11:15.979Z,998.88
2023-03-13T04:12:16.304Z,998.93
2023-03-13T04:13:16.633Z,998.85
2023-03-13T04:14:17.010Z,998.84
2023-03-13T04:15:17.199Z,998.86
2023-03-13T04:16:17.607Z,998.85
2023-03-13T04:17:17.864Z,998.76
2023-03-13T04:18:18.215Z,998.78
2023-03-13T04:19:18.541Z,998.79
2023-03-13T04:20:18.892Z,998.75
2023-03-13T04:21:19.085Z,998.71
2023-03-13T04:22:19.412Z,998.71
2023-03-13T04:23:19.752Z,998.74
2023-03-13T04:24:20.104Z,998.70
2023-03-13T04:25:20.302Z,998.64
2023-03-13T04:26:20.632Z,998.67
2023-03-13T04:27:20.977Z,998.64
2023-03-13T04:28:21.331Z,998.58
2023-03-13T04:29:21.552Z,998.64
2023-03-13T04:30:21.892Z,998.66
2023-03-13T04:31:22.227Z,998.60
2023-03-13T04:32:22.636Z,998.64
2023-03-13T04:33:22.857Z,998.66
2023-03-13T04:34:23.184Z,998.64
2023-03-13T04:35:23.499Z,998.56
2023-03-13T04:36:23.758Z,998.58
2023-03-13T04:37:23.976Z,998.58
2023-03-13T04:38:24.303Z,998.58
2023-03-13T04:39:24.643Z,998.51
2023-03-13T04:40:24.965Z,998.54
2023-03-13T04:41:25.291Z,998.47
2023-03-13T04:42:25.624Z,998.41
2023-03-13T04:43:25.978Z,998.38
2023-03-13T04:44:26.190Z,998.34
2023-03-13T04:45:26.519Z,998.37
2023-03-13T04:46:26.804Z,998.37
2023-03-13T04:47:27.059Z,998.37
2023-03-13T04:48:27.404Z,998.36
2023-03-13T04:49:27.698Z,998.30
2023-03-13T04:50:28.018Z,998.32
2023-03-13T04:51:28.344Z,998.26
2023-03-13T04:52:28.690Z,998.26
2023-03-13T04:53:28.967Z,998.19
2023-03-13T04:54:29.362Z,998.15
2023-03-13T04:55:29.558Z,998.15
2023-03-13T04:56:42.615Z,998.09
2023-03-13T04:57:31.206Z,998.13
2023-03-13T04:58:30.498Z,998.05
2023-03-13T04:59:30.712Z,998.07
2023-03-13T05:00:31.034Z,998.01
2023-03-13T05:01:31.385Z,997.97
2023-03-13T05:02:31.630Z,997.95
2023-03-13T05:03:31.961Z,997.98
2023-03-13T05:04:32.418Z,997.90
2023-03-13T05:05:32.667Z,997.86
2023-03-13T05:06:32.894Z,997.87
2023-03-13T05:07:33.202Z,997.90
2023-03-13T05:08:33.541Z,997.85
2023-03-13T05:09:33.882Z,997.84
2023-03-13T05:10:34.213Z,997.85
2023-03-13T05:11:34.443Z,997.83
2023-03-13T05:12:34.773Z,997.85
2023-03-13T05:13:35.115Z,997.82
2023-03-13T05:14:35.435Z,997.82
2023-03-13T05:15:35.811Z,997.77
2023-03-13T05:16:36.014Z,997.80
2023-03-13T05:17:36.381Z,997.73
2023-03-13T05:18:36.654Z,997.70
2023-03-13T05:19:36.825Z,997.82
2023-03-13T05:20:37.156Z,997.74
2023-03-13T05:21:37.483Z,997.75
2023-03-13T05:22:37.808Z,997.72
2023-03-13T05:23:38.164Z,997.73
2023-03-13T05:24:41.471Z,997.62
2023-03-13T05:25:38.829Z,997.70
2023-03-13T05:26:39.177Z,997.67
2023-03-13T05:27:39.498Z,997.64
2023-03-13T05:28:39.840Z,997.49
2023-03-13T05:29:40.070Z,997.50
2023-03-13T05:30:40.436Z,997.56
2023-03-13T05:31:40.657Z,997.52
2023-03-13T05:32:41.104Z,997.49
2023-03-13T05:33:41.350Z,997.45
2023-03-13T05:34:41.565Z,997.44
2023-03-13T05:35:41.815Z,997.36
2023-03-13T05:36:42.152Z,997.35
2023-03-13T05:37:42.378Z,997.37
2023-03-13T05:38:42.636Z,997.35
2023-03-13T05:39:42.856Z,997.31
2023-03-13T05:40:43.084Z,997.23
2023-03-13T05:41:43.438Z,997.26
2023-03-13T05:42:43.688Z,997.24
2023-03-13T05:43:44.044Z,997.17
2023-03-13T05:44:44.149Z,997.09
2023-03-13T05:45:44.473Z,997.10
2023-03-13T05:46:44.866Z,997.10
2023-03-13T05:47:45.145Z,997.05
2023-03-13T05:48:45.380Z,997.06
2023-03-13T05:49:45.606Z,997.05
2023-03-13T05:50:45.851Z,997.01
2023-03-13T05:51:46.097Z,997.00
2023-03-13T05:52:46.327Z,996.98
2023-03-13T05:53:46.568Z,996.93
2023-03-13T05:54:46.781Z,996.96
2023-03-13T05:55:47.139Z,996.90
2023-03-13T05:56:47.440Z,996.94
2023-03-13T05:57:47.661Z,996.86
2023-03-13T05:58:48.032Z,996.84
2023-03-13T05:59:48.252Z,996.81
2023-03-13T06:00:48.593Z,996.82
2023-03-13T06:01:48.932Z,996.81
2023-03-13T06:02:49.169Z,996.81
2023-03-13T06:03:49.511Z,996.77
2023-03-13T06:04:49.775Z,996.74
2023-03-13T06:05:49.932Z,996.76
2023-03-13T06:06:50.148Z,996.73
2023-03-13T06:07:50.488Z,996.76
2023-03-13T06:08:51.521Z,996.69
2023-03-13T06:09:51.059Z,996.68
2023-03-13T06:10:51.283Z,996.66
2023-03-13T06:11:51.623Z,996.70
2023-03-13T06:12:52.040Z,996.65
2023-03-13T06:13:52.303Z,996.72
2023-03-13T06:14:52.512Z,996.67
2023-03-13T06:15:52.897Z,996.66
2023-03-13T06:16:53.143Z,996.68
2023-03-13T06:17:53.360Z,996.65
2023-03-13T06:18:53.643Z,996.65
2023-03-13T06:19:54.654Z,996.58
2023-03-13T06:20:54.139Z,996.58
2023-03-13T06:21:54.375Z,996.58
2023-03-13T06:22:54.595Z,996.59
2023-03-13T06:23:54.939Z,996.49
2023-03-13T06:24:55.281Z,996.53
2023-03-13T06:25:55.626Z,996.53
2023-03-13T06:26:55.963Z,996.53
2023-03-13T06:27:56.306Z,996.51
2023-03-13T06:28:56.658Z,996.46
2023-03-13T06:29:56.891Z,996.43
2023-03-13T06:30:57.153Z,996.43
2023-03-13T06:31:57.640Z,996.41
2023-03-13T06:32:57.772Z,996.38
2023-03-13T06:33:57.946Z,996.38
2023-03-13T06:34:58.187Z,996.34
2023-03-13T06:35:58.483Z,996.29
2023-03-13T06:36:58.715Z,996.24
2023-03-13T06:37:59.064Z,996.26
2023-03-13T06:38:59.286Z,996.31
2023-03-13T06:39:59.505Z,996.32
2023-03-13T06:40:59.782Z,996.26
2023-03-13T06:42:00.105Z,996.17
2023-03-13T06:43:00.331Z,996.23
2023-03-13T06:44:00.612Z,996.20
2023-03-13T06:45:00.847Z,996.13
2023-03-13T06:46:01.076Z,996.06
2023-03-13T06:47:01.397Z,996.07
2023-03-13T06:48:01.617Z,996.02
2023-03-13T06:49:01.868Z,996.04
2023-03-13T06:50:02.118Z,995.95
2023-03-13T06:51:02.348Z,995.97
2023-03-13T06:52:02.579Z,995.98
2023-03-13T06:53:02.861Z,995.97
2023-03-13T06:54:03.105Z,995.91
2023-03-13T06:55:04.161Z,995.95
2023-03-13T06:56:03.575Z,995.88
2023-03-13T06:57:03.810Z,995.90
2023-03-13T06:58:04.040Z,995.91
2023-03-13T06:59:04.311Z,995.88
2023-03-13T07:00:04.564Z,995.87
2023-03-13T07:01:04.869Z,995.87
2023-03-13T07:02:05.042Z,995.85
2023-03-13T07:03:05.297Z,995.80
2023-03-13T07:04:05.676Z,995.82
2023-03-13T07:05:05.871Z,995.72
2023-03-13T07:06:06.027Z,995.66
2023-03-13T07:07:06.265Z,995.70
2023-03-13T07:08:06.498Z,995.68
2023-03-13T07:09:06.755Z,995.57
2023-03-13T07:10:06.980Z,995.55
2023-03-13T07:11:07.220Z,995.57
2023-03-13T07:12:07.453Z,995.52
2023-03-13T07:13:07.693Z,995.54
2023-03-13T07:14:16.495Z,995.45
2023-03-13T07:15:09.150Z,995.42
2023-03-13T07:16:08.483Z,995.40
2023-03-13T07:17:08.767Z,995.32
2023-03-13T07:18:09.006Z,995.37
2023-03-13T07:19:09.240Z,995.38
2023-03-13T07:20:09.669Z,995.33
2023-03-13T07:21:09.779Z,995.35
2023-03-13T07:22:10.024Z,995.33
2023-03-13T07:23:10.286Z,995.33
2023-03-13T07:24:10.654Z,995.31
2023-03-13T07:25:11.614Z,995.28
2023-03-13T07:26:11.911Z,995.25
2023-03-13T07:27:12.149Z,995.23
2023-03-13T07:28:11.600Z,995.27
2023-03-13T07:29:11.954Z,995.21
2023-03-13T07:30:12.089Z,995.17
2023-03-13T07:31:12.418Z,995.18
2023-03-13T07:32:12.780Z,995.10
2023-03-13T07:33:13.837Z,995.11
2023-03-13T07:34:13.197Z,995.09
2023-03-13T07:35:13.443Z,995.09
2023-03-13T07:36:13.749Z,995.06
2023-03-13T07:37:13.925Z,995.10
2023-03-13T07:38:14.167Z,994.97
2023-03-13T07:39:14.446Z,995.07
2023-03-13T07:40:14.690Z,995.00
2023-03-13T07:41:14.991Z,995.02
2023-03-13T07:42:15.251Z,994.96
2023-03-13T07:43:15.515Z,995.02
2023-03-13T07:44:15.860Z,994.97
2023-03-13T07:45:16.017Z,995.02
2023-03-13T07:46:16.358Z,994.97
2023-03-13T07:47:16.535Z,994.97
2023-03-13T07:48:16.766Z,994.97
2023-03-13T07:49:17.030Z,994.98
2023-03-13T07:50:17.358Z,995.00
2023-03-13T07:51:17.524Z,995.01
2023-03-13T07:52:17.763Z,995.04
2023-03-13T07:53:18.079Z,995.01
2023-03-13T07:54:18.332Z,995.00
2023-03-13T07:55:18.597Z,994.98
2023-03-13T07:56:18.831Z,994.96
2023-03-13T07:57:19.081Z,994.95
2023-03-13T07:58:19.356Z,994.88
2023-03-13T07:59:19.646Z,994.78
2023-03-13T08:00:19.892Z,994.74
2023-03-13T08:01:20.162Z,994.72
2023-03-13T08:02:20.483Z,994.72
2023-03-13T08:03:20.822Z,994.72
2023-03-13T08:04:21.101Z,994.70
2023-03-13T08:05:21.393Z,994.61
2023-03-13T08:06:21.678Z,994.62
2023-03-13T08:07:21.959Z,994.62
2023-03-13T08:08:22.243Z,994.58
2023-03-13T08:09:22.516Z,994.51
2023-03-13T08:10:22.852Z,994.48
2023-03-13T08:11:23.105Z,994.42
2023-03-13T08:12:23.389Z,994.39
2023-03-13T08:13:23.655Z,994.33
2023-03-13T08:14:23.949Z,994.35
2023-03-13T08:15:24.260Z,994.30
2023-03-13T08:16:24.582Z,994.35
2023-03-13T08:17:24.846Z,994.29
2023-03-13T08:18:25.136Z,994.29
2023-03-13T08:19:25.479Z,994.27
2023-03-13T08:20:25.710Z,994.26
2023-03-13T08:21:26.091Z,994.27
2023-03-13T08:22:26.252Z,994.25
2023-03-13T08:23:26.545Z,994.29
2023-03-13T08:24:26.877Z,994.25
2023-03-13T08:25:27.166Z,994.20
2023-03-13T08:26:27.743Z,994.19
2023-03-13T08:27:27.904Z,994.16
2023-03-13T08:28:28.083Z,994.24
2023-03-13T08:29:28.569Z,994.14
2023-03-13T08:30:28.826Z,994.04
2023-03-13T08:31:29.209Z,994.10
2023-03-13T08:32:29.520Z,994.05
2023-03-13T08:33:29.635Z,993.99
2023-03-13T08:34:30.124Z,994.01
2023-03-13T08:35:30.174Z,994.04
2023-03-13T08:36:30.486Z,994.03
2023-03-13T08:37:30.825Z,993.99
2023-03-13T08:38:31.177Z,993.94
2023-03-13T08:39:31.410Z,993.89
2023-03-13T08:40:31.693Z,993.84
2023-03-13T08:41:31.949Z,993.72
2023-03-13T08:42:32.196Z,993.78
2023-03-13T08:43:32.527Z,993.83
2023-03-13T08:44:32.780Z,993.80
2023-03-13T08:45:33.111Z,993.84
2023-03-13T08:46:33.390Z,993.80
2023-03-13T08:47:33.600Z,993.81
2023-03-13T08:48:33.953Z,993.76
2023-03-13T08:49:34.311Z,993.80
2023-03-13T08:50:34.558Z,993.79
2023-03-13T08:51:34.793Z,993.71
2023-03-13T08:52:35.262Z,993.72
2023-03-13T08:53:35.433Z,993.77
2023-03-13T08:54:35.793Z,993.72
2023-03-13T08:55:36.005Z,993.69
2023-03-13T08:56:36.237Z,993.68
2023-03-13T08:57:36.565Z,993.60
2023-03-13T08:58:37.430Z,993.62
2023-03-13T08:59:37.259Z,993.62
2023-03-13T09:00:37.545Z,993.65
2023-03-13T09:01:37.788Z,993.66
2023-03-13T09:02:38.051Z,993.58
2023-03-13T09:03:38.334Z,993.55
2023-03-13T09:04:38.577Z,993.60
2023-03-13T09:05:54.862Z,993.59
2023-03-13T09:06:40.270Z,993.44
2023-03-13T09:07:39.520Z,993.52
2023-03-13T09:08:39.877Z,993.52
2023-03-13T09:09:40.265Z,993.50
2023-03-13T09:10:40.491Z,993.49
2023-03-13T09:11:40.709Z,993.52
2023-03-13T09:12:42.071Z,993.52
2023-03-13T09:13:41.311Z,993.44
2023-03-13T09:14:41.716Z,993.31
2023-03-13T09:15:41.952Z,993.32
2023-03-13T09:16:42.268Z,993.37
2023-03-13T09:17:42.531Z,993.32
2023-03-13T09:18:42.763Z,993.47
2023-03-13T09:19:57.680Z,993.41
2023-03-13T09:20:44.209Z,993.35
2023-03-13T09:21:43.465Z,993.43
2023-03-13T09:22:43.784Z,993.40
2023-03-13T09:23:44.221Z,993.35
2023-03-13T09:24:44.581Z,993.29
2023-03-13T09:25:44.764Z,993.41
2023-03-13T09:27:00.173Z,993.36
2023-03-13T09:27:46.398Z,993.36
2023-03-13T09:28:45.646Z,993.24
2023-03-13T09:29:46.004Z,993.21
2023-03-13T09:30:46.312Z,993.24
2023-03-13T09:31:46.544Z,993.25
2023-03-13T09:32:47.004Z,993.24
2023-03-13T09:33:47.197Z,993.29
2023-03-13T09:34:47.602Z,993.23
2023-03-13T09:35:47.871Z,993.22
2023-03-13T09:36:48.099Z,993.22
2023-03-13T09:37:48.326Z,993.22
2023-03-13T09:38:48.571Z,993.22
2023-03-13T09:39:48.847Z,993.29
2023-03-13T09:41:04.908Z,993.09
2023-03-13T09:41:50.428Z,993.14
2023-03-13T09:42:49.718Z,993.12
2023-03-13T09:43:50.105Z,993.25
2023-03-13T09:44:50.351Z,993.21
2023-03-13T09:45:50.579Z,993.14
2023-03-13T09:46:50.889Z,993.17
2023-03-13T09:47:51.129Z,993.14
2023-03-13T09:48:51.401Z,993.13
2023-03-13T09:49:51.700Z,993.09
2023-03-13T09:50:51.923Z,993.16
2023-03-13T09:51:52.286Z,993.08
2023-03-13T09:52:52.633Z,993.13
2023-03-13T09:53:52.878Z,993.20
2023-03-13T09:55:02.284Z,993.06
2023-03-13T09:55:53.447Z,993.08
2023-03-13T09:56:53.688Z,993.11
2023-03-13T09:57:53.947Z,993.00
2023-03-13T09:58:54.179Z,993.10
2023-03-13T09:59:54.460Z,993.08
2023-03-13T10:00:54.742Z,993.11
2023-03-13T10:01:55.072Z,993.07
2023-03-13T10:02:55.318Z,992.97
2023-03-13T10:03:55.561Z,992.98
2023-03-13T10:04:55.837Z,992.98
2023-03-13T10:05:56.072Z,993.03
2023-03-13T10:06:56.320Z,992.98
2023-03-13T10:07:56.588Z,992.85
2023-03-13T10:08:56.818Z,992.75
2023-03-13T10:09:57.106Z,992.86
2023-03-13T10:10:57.431Z,992.85
2023-03-13T10:11:57.648Z,992.87
2023-03-13T10:12:57.896Z,992.94
2023-03-13T10:13:58.160Z,992.80
2023-03-13T10:14:58.412Z,992.77
2023-03-13T10:15:58.758Z,992.73
2023-03-13T10:16:59.041Z,992.65
2023-03-13T10:17:59.288Z,992.65
2023-03-13T10:18:59.592Z,992.67
2023-03-13T10:19:59.884Z,992.65
2023-03-13T10:21:00.129Z,992.71
2023-03-13T10:22:00.382Z,992.65
2023-03-13T10:23:00.638Z,992.81
2023-03-13T10:24:01.213Z,992.83
2023-03-13T10:25:01.162Z,992.74
2023-03-13T10:26:01.411Z,992.68
2023-03-13T10:27:01.684Z,992.68
2023-03-13T10:28:02.007Z,992.48
2023-03-13T10:29:02.286Z,992.60
2023-03-13T10:30:02.541Z,992.54
2023-03-13T10:31:02.797Z,992.52
2023-03-13T10:32:03.069Z,992.47
2023-03-13T10:33:03.317Z,992.32
2023-03-13T10:34:03.595Z,992.39
2023-03-13T10:35:04.054Z,992.51
2023-03-13T10:36:04.170Z,992.50
2023-03-13T10:37:04.412Z,992.57
2023-03-13T10:38:04.768Z,992.63
2023-03-13T10:39:05.008Z,992.68
2023-03-13T10:40:05.350Z,992.63
2023-03-13T10:41:05.653Z,992.55
2023-03-13T10:42:05.905Z,992.48
2023-03-13T10:43:06.159Z,992.51
2023-03-13T10:44:06.512Z,992.45
2023-03-13T10:45:06.788Z,992.46
2023-03-13T10:46:07.205Z,992.49
2023-03-13T10:47:07.307Z,992.40
2023-03-13T10:48:07.576Z,992.43
2023-03-13T10:49:07.888Z,992.43
2023-03-13T10:50:08.197Z,992.59
2023-03-13T10:51:08.476Z,992.53
2023-03-13T10:52:08.780Z,992.43
2023-03-13T10:53:09.046Z,992.41
2023-03-13T10:54:09.313Z,992.44
2023-03-13T10:55:09.593Z,992.50
2023-03-13T10:56:09.870Z,992.41
2023-03-13T10:57:10.142Z,992.44
2023-03-13T10:58:10.436Z,992.40
2023-03-13T10:59:10.722Z,992.29
2023-03-13T11:00:11.054Z,992.36
2023-03-13T11:01:11.309Z,992.19
2023-03-13T11:02:11.667Z,992.12
2023-03-13T11:03:12.020Z,992.14
2023-03-13T11:04:12.158Z,992.23
2023-03-13T11:05:13.623Z,992.16
2023-03-13T11:06:12.730Z,992.17
2023-03-13T11:07:13.014Z,992.12
2023-03-13T11:08:13.329Z,992.15
2023-03-13T11:09:13.604Z,992.13
2023-03-13T11:10:13.915Z,992.17
2023-03-13T11:11:14.209Z,992.06
2023-03-13T11:12:14.474Z,992.04
2023-03-13T11:13:15.950Z,991.91
2023-03-13T11:14:15.107Z,991.99
2023-03-13T11:15:15.549Z,991.99
2023-03-13T11:16:15.750Z,992.00
2023-03-13T11:17:15.919Z,991.94
2023-03-13T11:18:16.204Z,991.89
2023-03-13T11:19:16.503Z,991.97
2023-03-13T11:20:16.809Z,992.08
2023-03-13T11:21:18.591Z,992.11
2023-03-13T11:22:17.425Z,992.13
2023-03-13T11:23:17.694Z,991.94
2023-03-13T11:24:18.001Z,991.87
2023-03-13T11:25:18.271Z,991.83
2023-03-13T11:26:18.558Z,991.95
2023-03-13T11:27:18.782Z,991.93
2023-03-13T11:28:19.054Z,991.96
2023-03-13T11:29:19.338Z,992.01
2023-03-13T11:30:19.690Z,991.96
2023-03-13T11:31:20.001Z,991.81
2023-03-13T11:32:20.308Z,991.87
2023-03-13T11:33:20.560Z,991.91
2023-03-13T11:34:20.831Z,991.87
2023-03-13T11:35:21.141Z,991.89
2023-03-13T11:36:21.403Z,991.85
2023-03-13T11:37:21.679Z,991.80
2023-03-13T11:38:21.951Z,991.74
2023-03-13T11:39:22.275Z,991.71
2023-03-13T11:40:22.758Z,991.75
2023-03-13T11:41:22.964Z,991.72
2023-03-13T11:42:23.215Z,991.82
2023-03-13T11:43:25.667Z,991.79
2023-03-13T11:44:23.745Z,991.78
2023-03-13T11:45:24.032Z,991.85
2023-03-13T11:46:24.382Z,991.82
2023-03-13T11:47:24.513Z,991.75
2023-03-13T11:48:24.754Z,991.76
2023-03-13T11:49:25.770Z,991.77
2023-03-13T11:50:25.385Z,991.76
2023-03-13T11:51:25.683Z,991.82
2023-03-13T11:52:25.958Z,991.71
2023-03-13T11:53:26.258Z,991.66
2023-03-13T11:54:26.526Z,991.67
2023-03-13T11:55:26.802Z,991.70
2023-03-13T11:56:27.066Z,991.66
2023-03-13T11:57:27.318Z,991.64
2023-03-13T11:58:27.587Z,991.65
2023-03-13T11:59:27.839Z,991.64
2023-03-13T12:00:28.115Z,991.70
2023-03-13T12:01:28.393Z,991.69
2023-03-13T12:02:28.743Z,991.67
2023-03-13T12:03:28.980Z,991.66
2023-03-13T12:04:29.149Z,991.67
2023-03-13T12:05:29.530Z,991.62
2023-03-13T12:06:31.465Z,991.60
2023-03-13T12:07:30.005Z,991.58
2023-03-13T12:08:30.298Z,991.57
2023-03-13T12:09:30.577Z,991.52
2023-03-13T12:10:30.850Z,991.53
2023-03-13T12:11:31.122Z,991.45
2023-03-13T12:12:31.418Z,991.47
2023-03-13T12:13:31.696Z,991.43
2023-03-13T12:14:31.977Z,991.42
2023-03-13T12:15:32.260Z,991.47
2023-03-13T12:16:32.539Z,991.41
2023-03-13T12:17:32.894Z,991.51
2023-03-13T12:18:33.001Z,991.46
2023-03-13T12:19:33.268Z,991.48
2023-03-13T12:20:33.565Z,991.39
2023-03-13T12:21:33.902Z,991.37
2023-03-13T12:22:34.192Z,991.38
2023-03-13T12:23:34.532Z,991.38
2023-03-13T12:24:34.720Z,991.43
2023-03-13T12:25:36.139Z,991.41
2023-03-13T12:26:35.259Z,991.28